Ride Results

Boonah (16-03-2013)
Ride distance: 80.0 km

Outcomes - Boonah (16-03-2013)
Division No. of Entries Retired / DNE Completed Withdrawn Ineligible V/O Percentage Completed
HW 9 - 5 1 - 3 55.56%
MW 28 - 19 2 - 7 67.86%
LW 14 - 12 - - 2 85.71%
JN 15 - 13 1 - 1 86.67%
Totals 66 - 49 4 - 13 74.24%
Results - Boonah (16-03-2013)
No. Rider Horse Place Time Leg Speeds Total
Km/Hr
H/R bpm
Heavyweight
112 Toni Tatham Celestial Storm 1 6:54:00 12.2, 11.0 11.59 36, 44, 45 (Avg:44)
102 Shane Butler Yanbu Hakeem 2 7:05:00 12.6, 10.2 11.29 38, 42, 58 (Avg:50)
108 Ricky Petersen Jezabelle Golden Shimmer 3 (BC) 7:06:00 12.6, 10.1 11.27 38, 45, 48 (Avg:46)
114 Kathryn Priol Kalkadoon Lucifer 4 7:28:00 12.3, 9.4 10.71 40, 42, 55 (Avg:48)
127 Paul Roosen Greywood Magenta 5 8:06:00 12.3, 8.2 9.88 38, 45, 58 (Avg:51)
103 Maurice Gray PK Elmo Lame L2 0:00:00 12.5, 2.3 - 43, 44, 48 (Avg:46)
104 Chris Holden Sultan Heart Rate L2 0:00:00 12.5, 2.3 - 40, 52, 72 (Avg:62)
139 Gary Surch Shardell Angel Lame L2 0:00:00 13.1, 8.7 - 38, 38, 54 (Avg:46)
109 Lauren Trenkner Karinina Standing Tall Widthdrawn L1 0:00:00 - - 43, 48, 49 (Avg:48)
Middleweight
150 Jamie Green Chelleason Rembrandt 1 5:38:00 14.9, 13.4 14.20 35, 46, 54 (Avg:50)
121 Narelle Childs Halo Kazaam 2 5:38:10 15.5, 13.0 14.19 38, 44, 57 (Avg:50)
128 Rod Strahan Suncrest Sadaqa's Pride 3 (BC) 6:03:00 13.1, 13.2 13.22 34, 36, 48 (Avg:42)
126 Laura Axsentieff Fox Brush Custom Design 4 6:08:00 12.8, 13.2 13.04 38, 46, 60 (Avg:53)
164 Sally Summers Harry Potter 5 6:17:00 13.1, 12.3 12.73 40, 45, 48 (Avg:46)
156 Saasha Grogan S'Shaada Velvet 6 6:29:00 12.8, 11.8 12.34 43, 46, 52 (Avg:49)
134 Liz Kirk Dunwingeri Aasalah 7 6:32:00 14.7, 10.4 12.24 34, 44, 55 (Avg:49)
133 Lorraine Ternouth Drumlin Mystic Moon 7 6:32:00 14.7, 10.4 12.24 31, 32, 48 (Avg:40)
144 Johann Willemse Cheraz Silver Pocket 7 6:32:00 12.4, 11.9 12.24 40, 40, 54 (Avg:47)
115 Debra McQueen Googabilla Lodge Starlight 10 6:33:00 12.8, 11.6 12.21 41, 44, 55 (Avg:49)
161 Tarnia Kittel Heathfield's Khalukey 11 6:38:00 13.1, 11.1 12.06 41, 54, 46 (Avg:50)
162 Sasha Laws-King Razorback Love Song 12 6:48:00 12.1, 11.4 11.76 40, 48, 51 (Avg:49)
154 Yvonne Hain Kie-Al Sirhan 13 7:30:00 12.1, 9.5 10.67 34, 45, 49 (Avg:47)
155 Cora Becker Shantih Lodge Shazaam 14 7:57:00 11.1, 9.1 10.06 43, 40, 48 (Avg:44)
153 Liz Terry Ausden Illusion 14 7:57:00 12.4, 8.4 10.06 40, 44, 42 (Avg:43)
101 Rachel Goodwin Niora 16 8:05:00 12.3, 8.2 9.90 36, 42, 52 (Avg:47)
129 Troy Roosen Camilla's English Rose 17 8:06:00 12.3, 8.2 9.88 34, 46, 59 (Avg:52)
169 Stephen Gray Shaw Park Sweet Affair 18 8:10:00 12.5, 8.0 9.80 28, 40, 44 (Avg:42)
117 Natashja Burton Lindall Footloose 19 8:18:00 10.1, 9.1 9.64 35, 44, 55 (Avg:49)
146 Camila Champagne-Bargenquast S'Shaada Solomon Lame L2 0:00:00 14.9, 13.4 - 40, 52, 55 (Avg:53)
130 Madeleine Fisher Mt Eerwah Masai Heart Rate L2 0:00:00 13.2, 9.2 - 38, 48, 75 (Avg:61)
135 Hannah Houlden Lara's Song Heart Rate L2 0:00:00 12.8, 11.6 - 37, 46, 80 (Avg:63)
122 Simone Krahnen La-Battist Shadow Fax Heart Rate L2 0:00:00 12.3, 13.3 - 34, 44, 64 (Avg:54)
138 Brian Maher Rafyke Lame L2 0:00:00 12.8, 8.2 - 39, 48, 55 (Avg:51)
149 Ken Moir Picnic Park Silver Knight Heart Rate L2 0:00:00 14.9, 13.4 - 36, 46, 70 (Avg:58)
137 Akhmed Pshunov Atticus Heart Rate L2 0:00:00 15.9, 17.6 - 41, 50, 66 (Avg:58)
132 Corinne Kempter Tim Tam Widthdrawn L1 0:00:00 - - 39, 46 (Avg:46)
124 Julie Mohi Milady Mercury Widthdrawn L1 0:00:00 - - 36, 46 (Avg:46)
Lightweight
165 Amanda Phillips Dardanga Fingal 1 6:07:00 14.2, 12.0 13.08 33, 50, 50 (Avg:50)
167 Leigh Ann Sample Brookleigh Commander 2 6:08:00 12.4, 13.6 13.04 33, 46, 48 (Avg:47)
123 Erin Krahnen Kalkadoon Zorro 3 6:15:00 12.3, 13.3 12.80 48, 42, 53 (Avg:47)
163 Della Weier Kahshah 4 (BC) 6:17:00 13.1, 12.3 12.73 37, 40, 42 (Avg:41)
142 Alyce Capek Gums Kawielie 5 6:32:00 12.4, 11.9 12.24 36, 46, 47 (Avg:46)
141 Natasha Willemse De Sharvarll Whispyr 5 6:32:00 12.4, 11.9 12.24 33, 50, 53 (Avg:51)
111 Janelle Weise Windhaven Hussein 7 6:35:00 12.3, 11.9 12.15 40, 40, 48 (Avg:44)
120 Leah Begley Niarla Elia Shaklan 8 6:58:00 12.3, 10.7 11.48 40, 45, 52 (Avg:48)
113 Kate Appleby Bashan Lilly 9 7:03:00 11.6, 11.0 11.35 36, 46, 56 (Avg:51)
148 Shelley Chapman Bellarine Captain 10 7:18:00 12.4, 9.7 10.96 37, 44, 46 (Avg:45)
131 Ute Jordan Golden Thunder 11 7:20:00 11.6, 10.2 10.91 40, 42, 45 (Avg:43)
143 Christal Rizk Oakley Park Anticipation 12 7:34:00 13.1, 8.8 10.57 36, 48, 48 (Avg:48)
110 Jocelyn Barnes Trinity Heart Rate L2 0:00:00 12.3, 10.9 - 44, 48, 63 (Avg:55)
105 Sabrina Stephens Mataranka Diamonds Lame L2 0:00:00 11.9, 9.1 - 36, 48, 54 (Avg:51)
Junior
125 David Anderson Jnr Arabiana Banama 1 (BC) 5:35:00 14.3, 14.2 14.33 44, 47, 60 (Avg:53)
166 Jessica Terry Kalkadoon Vienna 2 6:07:00 14.2, 12.0 13.08 39, 43, 51 (Avg:47)
152 Emily-Jade Begley Mia 3 6:32:00 11.9, 12.4 12.24 39, 44, 47 (Avg:45)
116 Colleen Krahnen Lindall Condamine 3 6:32:00 11.9, 12.4 12.24 38, 42, 48 (Avg:45)
119 Jess Dakin Caramea Morocco 5 7:06:00 11.6, 10.9 11.27 44, 44, 59 (Avg:51)
160 Brooke Marshall Meltharina Maralyc 5 7:06:00 11.6, 10.9 11.27 30, 44, 46 (Avg:45)
151 Megan Stehouwer Performance Park Drovers La Ment 7 7:28:00 12.3, 9.4 10.71 38, 40, 56 (Avg:48)
147 Shania Chapman Sahala Astronomer 8 7:30:00 12.4, 9.3 10.67 36, 38, 49 (Avg:43)
106 Kenzie Roberton Cameo Silver Bellz 9 7:43:00 11.9, 9.1 10.37 33, 44, 46 (Avg:45)
145 Sarah Huddleston The Big Dipper 10 7:49:00 11.7, 9.0 10.23 38, 42, 52 (Avg:47)
136 Lainie Zischke River Oak Willoshey 10 7:49:00 11.7, 9.0 10.23 34, 44, 53 (Avg:48)
118 Connor Krahnen Ei Ei O te 12 8:18:00 10.1, 9.1 9.64 32, 42, 44 (Avg:43)
157 Pandora Bevan Splendacrest Ulysses 13 9:43:00 9.7, 7.1 8.23 36, 38, 45 (Avg:41)
159 Gemma Dickenson Melcot Bella Lame L2 0:00:00 9.7, 2.2 - 48, 39, 43 (Avg:41)
158 Emily Markey Keisha Widthdrawn L1 0:00:00 - - 35, 38, 50 (Avg:44)